Time;durP1;ratioP1;P1;durP2;ratioP2;P2;SDS_P1;SDS_P2;PMS_P1;PMS_P2;Temp;Humidity;BMP_temperature;BMP_pressure;BME280_temperature;BME280_humidity;BME280_pressure;Samples;Min_cycle;Max_cycle;Signal;HPM_P1;HPM_P2
2024/04/16 00:01:42;;;;;;;0.20;0.20;;;4.90;99.90;;;;;;5238062;27;20605;-66
2024/04/16 00:04:07;;;;;;;1.57;0.60;;;4.90;99.90;;;;;;5240695;27;20234;-66
2024/04/16 00:06:33;;;;;;;0.10;0.10;;;4.90;99.90;;;;;;5226774;27;20254;-66
2024/04/16 00:08:59;;;;;;;0.20;0.20;;;4.90;99.90;;;;;;5240529;27;20234;-66
2024/04/16 00:11:24;;;;;;;0.20;0.20;;;4.90;99.90;;;;;;5239690;27;20469;-66
2024/04/16 00:13:50;;;;;;;0.20;0.20;;;4.90;99.90;;;;;;5240443;27;20230;-67
2024/04/16 00:16:15;;;;;;;0.20;0.20;;;4.90;99.90;;;;;;5240503;27;20570;-66
2024/04/16 00:18:41;;;;;;;0.57;0.20;;;4.90;99.90;;;;;;5239852;27;20246;-66
2024/04/16 00:21:07;;;;;;;0.60;0.30;;;4.90;99.90;;;;;;5239890;27;20290;-67
2024/04/16 00:23:32;;;;;;;0.30;0.20;;;4.90;99.90;;;;;;5212894;27;20716;-67
2024/04/16 00:25:58;;;;;;;0.40;0.30;;;4.90;99.90;;;;;;5232861;27;20235;-67
2024/04/16 00:28:23;;;;;;;0.23;0.23;;;4.90;99.90;;;;;;5233000;27;20268;-66
2024/04/16 00:30:49;;;;;;;0.13;0.13;;;4.90;99.90;;;;;;5239915;27;20284;-67
2024/04/16 00:33:15;;;;;;;0.20;0.20;;;4.80;99.90;;;;;;5240388;27;20662;-66
2024/04/16 00:35:43;;;;;;;0.20;0.20;;;4.90;99.90;;;;;;5240179;27;20249;-67
2024/04/16 00:38:09;;;;;;;2.20;0.93;;;4.90;99.90;;;;;;5240249;27;20241;-66
2024/04/16 00:40:34;;;;;;;0.10;0.10;;;4.90;99.90;;;;;;5239095;27;20317;-67
2024/04/16 00:43:00;;;;;;;0.20;0.20;;;4.90;99.90;;;;;;5231950;27;20781;-67
2024/04/16 00:45:26;;;;;;;0.20;0.20;;;4.90;99.90;;;;;;5234309;27;20242;-66
2024/04/16 00:47:53;;;;;;;0.20;0.20;;;4.90;99.90;;;;;;5239912;27;20746;-66
2024/04/16 00:50:19;;;;;;;2.93;0.73;;;4.90;99.90;;;;;;5239463;27;20277;-66
2024/04/16 00:52:45;;;;;;;0.30;0.30;;;4.90;99.90;;;;;;5239821;27;20245;-66
2024/04/16 00:55:11;;;;;;;0.10;0.10;;;4.90;99.90;;;;;;5239654;27;20238;-67
2024/04/16 00:57:38;;;;;;;0.10;0.10;;;4.90;99.90;;;;;;5239690;27;20618;-67
2024/04/16 01:00:04;;;;;;;0.20;0.20;;;4.90;99.90;;;;;;5239344;27;20785;-66
2024/04/16 01:02:29;;;;;;;0.47;0.43;;;4.90;99.90;;;;;;5239543;27;20797;-67
2024/04/16 01:04:55;;;;;;;0.20;0.20;;;4.90;99.90;;;;;;5239755;27;20279;-66
2024/04/16 01:07:23;;;;;;;0.50;0.33;;;4.90;99.90;;;;;;5241544;27;20347;-67
2024/04/16 01:09:48;;;;;;;1.07;0.30;;;4.90;99.90;;;;;;5241796;27;21020;-66
2024/04/16 01:12:14;;;;;;;0.10;0.10;;;4.90;99.90;;;;;;5243041;27;20238;-66
2024/04/16 01:14:39;;;;;;;2.40;0.60;;;4.90;99.90;;;;;;5228794;27;20284;-66
2024/04/16 01:17:07;;;;;;;0.47;0.43;;;4.90;99.90;;;;;;5242746;27;20241;-66
2024/04/16 01:19:32;;;;;;;0.17;0.17;;;4.80;99.90;;;;;;5241900;27;20257;-66
2024/04/16 01:21:58;;;;;;;0.13;0.13;;;4.80;99.90;;;;;;5242757;27;20233;-66
2024/04/16 01:24:23;;;;;;;0.30;0.20;;;4.80;99.90;;;;;;5242765;27;20277;-66
2024/04/16 01:26:49;;;;;;;0.17;0.17;;;4.80;99.90;;;;;;5242666;27;20264;-66
2024/04/16 01:29:15;;;;;;;0.53;0.33;;;4.70;99.90;;;;;;5242337;27;20237;-67
2024/04/16 01:31:41;;;;;;;0.30;0.30;;;4.70;99.90;;;;;;5241876;27;20280;-66
2024/04/16 01:34:06;;;;;;;0.30;0.30;;;4.60;99.90;;;;;;5242604;27;20230;-66
2024/04/16 01:36:32;;;;;;;0.33;0.30;;;4.60;99.90;;;;;;5242303;27;20410;-66
2024/04/16 01:38:57;;;;;;;1.10;0.60;;;4.60;99.90;;;;;;5241913;27;20495;-66
2024/04/16 01:41:23;;;;;;;0.20;0.20;;;4.60;99.90;;;;;;5241919;27;20234;-66
2024/04/16 01:43:48;;;;;;;0.20;0.20;;;4.60;99.90;;;;;;5242338;27;20229;-66
2024/04/16 01:46:14;;;;;;;0.53;0.20;;;4.50;99.90;;;;;;5242413;27;20317;-66
2024/04/16 01:48:40;;;;;;;0.27;0.20;;;4.50;99.90;;;;;;5242030;27;20343;-66
2024/04/16 01:51:05;;;;;;;0.20;0.20;;;4.50;99.90;;;;;;5241848;27;20356;-66
2024/04/16 01:53:31;;;;;;;0.40;0.27;;;4.50;99.90;;;;;;5254666;27;20269;-66
2024/04/16 01:55:59;;;;;;;0.40;0.33;;;4.50;99.90;;;;;;5242094;27;20730;-66
2024/04/16 01:58:25;;;;;;;0.20;0.20;;;4.60;99.90;;;;;;5241882;27;20234;-65
2024/04/16 02:00:58;;;;;;;0.23;0.20;;;4.70;99.90;;;;;;5241753;27;20294;-66
2024/04/16 02:03:24;;;;;;;0.20;0.20;;;4.80;99.90;;;;;;5242354;27;20349;-65
2024/04/16 02:05:49;;;;;;;1.20;0.50;;;4.70;99.90;;;;;;5241995;27;20245;-66
2024/04/16 02:08:15;;;;;;;0.30;0.30;;;4.80;99.90;;;;;;5242015;27;20241;-65
2024/04/16 02:10:54;;;;;;;0.20;0.20;;;4.80;99.90;;;;;;5227446;27;20273;-67
2024/04/16 02:13:20;;;;;;;0.20;0.20;;;4.90;99.90;;;;;;5242159;27;20293;-66
2024/04/16 02:15:46;;;;;;;0.10;0.10;;;4.90;99.90;;;;;;5241896;27;20272;-66
2024/04/16 02:18:11;;;;;;;0.20;0.20;;;4.80;99.90;;;;;;5240890;27;20233;-66
2024/04/16 02:20:37;;;;;;;0.73;0.30;;;4.80;99.90;;;;;;5241485;27;20245;-65
2024/04/16 02:23:03;;;;;;;0.20;0.20;;;4.90;99.90;;;;;;5241909;27;20245;-66
2024/04/16 02:25:28;;;;;;;2.33;0.73;;;4.90;99.90;;;;;;5241744;27;20233;-66
2024/04/16 02:27:54;;;;;;;1.40;0.53;;;4.80;99.90;;;;;;5228296;27;20241;-66
2024/04/16 02:30:19;;;;;;;0.70;0.30;;;4.90;99.90;;;;;;5227406;27;20253;-65
2024/04/16 02:32:45;;;;;;;0.30;0.30;;;4.90;99.90;;;;;;5241905;27;20280;-66
2024/04/16 02:35:10;;;;;;;0.30;0.30;;;4.90;99.90;;;;;;5234788;27;20716;-65
2024/04/16 02:37:36;;;;;;;0.30;0.30;;;4.80;99.90;;;;;;5238077;27;20745;-66
2024/04/16 02:40:01;;;;;;;0.50;0.40;;;4.80;99.90;;;;;;5241052;27;20292;-65
2024/04/16 02:42:27;;;;;;;7.23;0.63;;;4.90;99.90;;;;;;5241637;27;20238;-65
2024/04/16 02:44:52;;;;;;;0.20;0.20;;;4.90;99.90;;;;;;5241729;27;20230;-65
2024/04/16 02:47:18;;;;;;;0.20;0.20;;;4.90;99.90;;;;;;5216062;27;20234;-65
2024/04/16 02:49:43;;;;;;;0.20;0.20;;;4.90;99.90;;;;;;5225390;27;20238;-65
2024/04/16 02:52:09;;;;;;;0.50;0.50;;;4.90;99.90;;;;;;5241707;27;20233;-66
2024/04/16 02:54:34;;;;;;;0.30;0.30;;;4.80;99.90;;;;;;5241333;27;20277;-65
2024/04/16 02:57:00;;;;;;;0.30;0.30;;;4.70;99.90;;;;;;5241475;27;20292;-65
2024/04/16 02:59:25;;;;;;;0.47;0.43;;;4.80;99.90;;;;;;5241037;27;20238;-64
2024/04/16 03:01:52;;;;;;;0.30;0.20;;;4.80;99.90;;;;;;5241046;27;20273;-66
2024/04/16 03:04:18;;;;;;;0.27;0.27;;;4.70;99.90;;;;;;5241779;27;20305;-66
2024/04/16 03:06:43;;;;;;;1.47;0.50;;;4.70;99.90;;;;;;5240993;27;20246;-64
2024/04/16 03:09:09;;;;;;;3.67;0.50;;;4.70;99.90;;;;;;5241257;27;20254;-65
2024/04/16 03:11:34;;;;;;;0.57;0.57;;;4.60;99.90;;;;;;5240280;27;20293;-65
2024/04/16 03:14:01;;;;;;;0.20;0.13;;;4.60;99.90;;;;;;5241224;27;20632;-65
2024/04/16 03:16:26;;;;;;;0.20;0.20;;;4.60;99.90;;;;;;5241072;27;20246;-65
2024/04/16 03:18:53;;;;;;;0.13;0.13;;;4.60;99.90;;;;;;5234876;27;20371;-65
2024/04/16 03:21:18;;;;;;;0.50;0.40;;;4.60;99.90;;;;;;5233053;27;20268;-64
2024/04/16 03:23:44;;;;;;;1.73;0.50;;;4.60;99.90;;;;;;5241500;27;20234;-65
2024/04/16 03:26:10;;;;;;;1.27;0.40;;;4.60;99.90;;;;;;5240992;27;20311;-65
2024/04/16 03:28:35;;;;;;;0.40;0.30;;;4.60;99.90;;;;;;5240712;27;20238;-65
2024/04/16 03:31:01;;;;;;;0.30;0.30;;;4.60;99.90;;;;;;5265422;27;20238;-65
2024/04/16 03:33:26;;;;;;;0.73;0.60;;;4.50;99.90;;;;;;5240863;27;20730;-65
2024/04/16 03:35:54;;;;;;;0.23;0.23;;;4.50;99.90;;;;;;5241106;27;20315;-65
2024/04/16 03:38:19;;;;;;;0.60;0.20;;;4.50;99.90;;;;;;5240749;27;20277;-65
2024/04/16 03:40:56;;;;;;;0.20;0.20;;;4.40;99.90;;;;;;5239946;27;20233;-66
2024/04/16 03:43:21;;;;;;;0.70;0.70;;;4.40;99.90;;;;;;5241186;27;20238;-65
2024/04/16 03:45:57;;;;;;;0.20;0.20;;;4.40;99.90;;;;;;5240615;27;20724;-66
2024/04/16 03:48:24;;;;;;;0.37;0.23;;;4.40;99.90;;;;;;5240559;27;20257;-65
2024/04/16 03:50:49;;;;;;;4.87;0.30;;;4.40;99.90;;;;;;5240053;27;20238;-65
2024/04/16 03:53:15;;;;;;;0.30;0.30;;;4.30;99.90;;;;;;5229611;27;20294;-66
2024/04/16 03:55:41;;;;;;;0.53;0.53;;;4.30;99.90;;;;;;5237808;27;20245;-65
2024/04/16 03:58:06;;;;;;;0.30;0.27;;;4.20;99.90;;;;;;5266861;27;20242;-66
2024/04/16 04:03:17;;;;;;;0.40;0.40;;;4.20;99.90;;;;;;5240417;27;20343;-65
2024/04/16 04:05:46;;;;;;;0.20;0.20;;;4.20;99.90;;;;;;5240478;27;20722;-66
2024/04/16 04:08:12;;;;;;;0.30;0.30;;;4.20;99.90;;;;;;5240282;27;20293;-66
2024/04/16 04:10:38;;;;;;;0.30;0.30;;;4.10;99.90;;;;;;5239556;27;20722;-66
2024/04/16 04:13:04;;;;;;;0.30;0.30;;;4.20;99.90;;;;;;5240595;27;20721;-65
2024/04/16 04:15:30;;;;;;;0.10;0.10;;;4.20;99.90;;;;;;5240190;27;20295;-65
2024/04/16 04:17:56;;;;;;;0.57;0.33;;;4.20;99.90;;;;;;5240307;27;20285;-66
2024/04/16 04:20:21;;;;;;;0.53;0.30;;;4.20;99.90;;;;;;5238117;27;20292;-65
2024/04/16 04:22:47;;;;;;;2.10;0.40;;;4.20;99.90;;;;;;5240148;27;20590;-67
2024/04/16 04:25:12;;;;;;;0.20;0.20;;;4.10;99.90;;;;;;5240485;27;20237;-66
2024/04/16 04:27:42;;;;;;;0.20;0.20;;;4.10;99.90;;;;;;5239818;27;20272;-66
2024/04/16 04:30:08;;;;;;;3.73;0.43;;;4.10;99.90;;;;;;5239521;27;20237;-65
2024/04/16 04:32:34;;;;;;;2.73;1.17;;;4.10;99.90;;;;;;5240414;27;20623;-65
2024/04/16 04:35:02;;;;;;;0.37;0.37;;;4.10;99.90;;;;;;5265882;27;20249;-66
2024/04/16 04:37:28;;;;;;;0.40;0.40;;;4.20;99.90;;;;;;5239044;27;20241;-64
2024/04/16 04:39:53;;;;;;;0.30;0.30;;;4.30;99.90;;;;;;5237261;27;20373;-66
2024/04/16 04:42:19;;;;;;;0.20;0.20;;;4.30;99.90;;;;;;5228394;27;20234;-65
2024/04/16 04:44:45;;;;;;;0.20;0.20;;;4.30;99.90;;;;;;5225092;27;20257;-65
2024/04/16 04:47:11;;;;;;;0.40;0.37;;;4.40;99.90;;;;;;5240357;27;20229;-65
2024/04/16 04:49:37;;;;;;;2.37;0.47;;;4.30;99.90;;;;;;5239282;27;20242;-65
2024/04/16 04:52:02;;;;;;;0.43;0.37;;;4.40;99.90;;;;;;5239304;27;20245;-65
2024/04/16 04:54:28;;;;;;;0.23;0.23;;;4.40;99.90;;;;;;5238907;27;20606;-65
2024/04/16 04:56:53;;;;;;;0.20;0.20;;;4.30;99.90;;;;;;5238896;27;20275;-66
2024/04/16 04:59:19;;;;;;;0.50;0.50;;;4.40;99.90;;;;;;5232350;27;20234;-65
2024/04/16 05:01:44;;;;;;;3.40;0.60;;;4.30;99.90;;;;;;5238453;27;20280;-65
2024/04/16 05:04:10;;;;;;;0.43;0.40;;;4.30;99.90;;;;;;5239171;27;20435;-66
2024/04/16 05:06:37;;;;;;;1.37;0.60;;;4.30;99.90;;;;;;5236750;27;20242;-66
2024/04/16 05:09:04;;;;;;;1.60;0.40;;;4.40;99.90;;;;;;5227707;27;20249;-66
2024/04/16 05:11:30;;;;;;;0.37;0.30;;;4.40;99.90;;;;;;5237914;27;20301;-66
2024/04/16 05:13:56;;;;;;;0.20;0.20;;;4.40;99.90;;;;;;5265419;27;20328;-66
2024/04/16 05:16:22;;;;;;;0.80;0.60;;;4.50;99.90;;;;;;5238755;27;20233;-65
2024/04/16 05:18:48;;;;;;;0.53;0.47;;;4.50;99.90;;;;;;5238799;27;20289;-66
2024/04/16 05:21:13;;;;;;;0.20;0.20;;;4.50;99.90;;;;;;5238096;27;20249;-65
2024/04/16 05:23:39;;;;;;;0.30;0.30;;;4.50;99.90;;;;;;5264676;27;20230;-65
2024/04/16 05:26:05;;;;;;;0.43;0.13;;;4.50;99.90;;;;;;5238556;27;20278;-65
2024/04/16 05:28:31;;;;;;;1.03;0.60;;;4.40;99.90;;;;;;5232659;27;20233;-65
2024/04/16 05:30:57;;;;;;;0.20;0.20;;;4.40;99.90;;;;;;5238129;27;20580;-65
2024/04/16 05:33:26;;;;;;;0.20;0.20;;;4.40;99.90;;;;;;5225880;27;20231;-65
2024/04/16 05:35:52;;;;;;;0.67;0.50;;;4.50;99.90;;;;;;5238330;27;20253;-65
2024/04/16 05:38:18;;;;;;;0.43;0.40;;;4.40;99.90;;;;;;5224691;27;20279;-65
2024/04/16 05:40:43;;;;;;;1.37;0.80;;;4.50;99.90;;;;;;5223627;27;20716;-65
2024/04/16 05:43:09;;;;;;;0.20;0.20;;;4.40;99.90;;;;;;5237457;27;20303;-65
2024/04/16 05:45:35;;;;;;;1.83;0.47;;;4.40;99.90;;;;;;5238139;27;20254;-66
2024/04/16 05:48:00;;;;;;;1.03;0.70;;;4.50;99.90;;;;;;5230537;27;20312;-66
2024/04/16 05:50:26;;;;;;;0.93;0.47;;;4.50;99.90;;;;;;5218375;27;20289;-66
2024/04/16 05:52:52;;;;;;;3.97;0.67;;;4.60;99.90;;;;;;5238193;27;20233;-66
2024/04/16 05:55:18;;;;;;;0.67;0.50;;;4.70;99.90;;;;;;5241565;27;20615;-66
2024/04/16 05:57:44;;;;;;;0.50;0.50;;;4.80;99.90;;;;;;5241118;27;20234;-67
2024/04/16 06:00:10;;;;;;;2.20;0.40;;;4.90;99.90;;;;;;5240832;27;20657;-65
2024/04/16 06:02:35;;;;;;;0.20;0.20;;;4.90;99.90;;;;;;5241342;27;20365;-66
2024/04/16 06:05:01;;;;;;;0.43;0.40;;;5.00;99.90;;;;;;5241600;27;20276;-66
2024/04/16 06:07:27;;;;;;;0.30;0.30;;;5.10;99.90;;;;;;5240926;27;20721;-66
2024/04/16 06:09:53;;;;;;;0.30;0.30;;;5.20;99.90;;;;;;5226979;27;20280;-66
2024/04/16 06:12:18;;;;;;;0.20;0.20;;;5.30;99.90;;;;;;5241620;27;20372;-66
2024/04/16 06:14:44;;;;;;;0.30;0.30;;;5.40;99.90;;;;;;5239055;27;20238;-67
2024/04/16 06:17:10;;;;;;;0.30;0.30;;;5.40;99.90;;;;;;5241458;27;20238;-67
2024/04/16 06:19:36;;;;;;;0.20;0.20;;;5.30;99.90;;;;;;5224368;27;20265;-67
2024/04/16 06:22:02;;;;;;;1.73;0.50;;;5.30;99.90;;;;;;5241352;27;20233;-66
2024/04/16 06:24:28;;;;;;;1.63;0.63;;;5.30;99.90;;;;;;5241387;27;20705;-67
2024/04/16 06:26:53;;;;;;;0.40;0.40;;;5.40;99.90;;;;;;5241368;27;20234;-67
2024/04/16 06:29:20;;;;;;;0.87;0.40;;;5.40;99.90;;;;;;5241059;27;20352;-67
2024/04/16 06:31:46;;;;;;;0.40;0.30;;;5.40;99.90;;;;;;5240490;27;20585;-66
2024/04/16 06:34:12;;;;;;;0.50;0.50;;;5.50;99.90;;;;;;5241139;27;20280;-67
2024/04/16 06:36:38;;;;;;;1.40;0.53;;;5.60;99.90;;;;;;5240585;27;20237;-66
2024/04/16 06:39:03;;;;;;;0.37;0.33;;;5.70;99.90;;;;;;5231396;27;20306;-67
2024/04/16 06:41:29;;;;;;;0.43;0.23;;;5.80;99.90;;;;;;5234355;27;20234;-66
2024/04/16 06:43:54;;;;;;;0.50;0.43;;;6.00;99.90;;;;;;5240962;27;20346;-67
2024/04/16 06:46:20;;;;;;;0.67;0.67;;;6.10;99.90;;;;;;5241452;27;20242;-67
2024/04/16 06:48:48;;;;;;;0.23;0.23;;;6.20;99.90;;;;;;5240817;27;20249;-66
2024/04/16 06:51:14;;;;;;;1.03;0.40;;;6.30;99.90;;;;;;5240294;27;20237;-66
2024/04/16 06:53:39;;;;;;;0.77;0.27;;;6.30;99.90;;;;;;5240564;27;20280;-68
2024/04/16 06:56:06;;;;;;;0.93;0.57;;;6.30;99.90;;;;;;5240504;27;20605;-67
2024/04/16 06:58:32;;;;;;;0.40;0.40;;;6.30;99.90;;;;;;5240292;27;20284;-67
2024/04/16 07:00:57;;;;;;;0.40;0.40;;;6.40;99.90;;;;;;5240227;27;20230;-68
2024/04/16 07:03:23;;;;;;;0.97;0.50;;;6.80;99.90;;;;;;5240879;27;20664;-68
2024/04/16 07:05:52;;;;;;;0.23;0.23;;;6.90;99.90;;;;;;5240030;27;20234;-67
2024/04/16 07:08:19;;;;;;;0.20;0.20;;;6.90;99.90;;;;;;5240253;27;20789;-69
2024/04/16 07:10:46;;;;;;;0.50;0.40;;;7.00;99.90;;;;;;5239710;27;20288;-67
2024/04/16 07:13:11;;;;;;;0.20;0.20;;;7.30;99.90;;;;;;5238664;27;20789;-67
2024/04/16 07:15:37;;;;;;;0.27;0.27;;;7.60;99.90;;;;;;5240656;27;20733;-67
2024/04/16 07:18:03;;;;;;;0.60;0.47;;;7.70;99.90;;;;;;5266961;27;20242;-67
2024/04/16 07:20:28;;;;;;;2.23;0.50;;;7.70;99.90;;;;;;5226352;27;20712;-68
2024/04/16 07:22:54;;;;;;;0.53;0.30;;;7.60;99.90;;;;;;5225383;27;20314;-67
2024/04/16 07:25:20;;;;;;;0.40;0.40;;;7.50;99.90;;;;;;5240202;27;20268;-68
2024/04/16 07:27:45;;;;;;;0.30;0.30;;;7.60;99.90;;;;;;5236387;27;20238;-68
2024/04/16 07:30:13;;;;;;;0.40;0.40;;;7.50;99.90;;;;;;5230319;27;20249;-68
2024/04/16 07:32:38;;;;;;;0.23;0.20;;;7.50;99.90;;;;;;5239665;27;20325;-67
2024/04/16 07:35:04;;;;;;;2.87;0.30;;;7.40;99.90;;;;;;5266635;27;20250;-67
2024/04/16 07:37:30;;;;;;;0.30;0.30;;;7.30;99.90;;;;;;5239907;27;20726;-67
2024/04/16 07:39:55;;;;;;;0.60;0.33;;;7.30;99.90;;;;;;5239808;27;20296;-68
2024/04/16 07:42:21;;;;;;;3.93;0.83;;;7.20;99.90;;;;;;5238593;27;20718;-70
2024/04/16 07:44:47;;;;;;;4.50;0.43;;;7.20;99.90;;;;;;5226594;27;20778;-68
2024/04/16 07:47:13;;;;;;;0.93;0.50;;;7.30;99.90;;;;;;5230465;27;20239;-67
2024/04/16 07:49:38;;;;;;;0.40;0.40;;;7.30;99.90;;;;;;5235404;27;20253;-68
2024/04/16 07:52:04;;;;;;;0.17;0.17;;;7.30;99.90;;;;;;5238552;27;20242;-68
2024/04/16 07:54:30;;;;;;;1.30;0.50;;;7.30;99.90;;;;;;5238284;27;20301;-68
2024/04/16 07:56:55;;;;;;;0.40;0.40;;;7.30;99.90;;;;;;5240029;27;20566;-68
2024/04/16 07:59:21;;;;;;;1.03;0.57;;;7.30;99.90;;;;;;5237978;27;20688;-67
2024/04/16 08:01:47;;;;;;;0.50;0.50;;;7.30;99.90;;;;;;5225747;27;20599;-67
2024/04/16 08:04:13;;;;;;;0.70;0.30;;;7.20;99.90;;;;;;5239859;27;20568;-66
2024/04/16 08:06:39;;;;;;;0.20;0.20;;;6.90;99.90;;;;;;5239377;27;20284;-65
2024/04/16 08:09:04;;;;;;;0.20;0.20;;;6.80;99.90;;;;;;5239818;27;20257;-65
2024/04/16 08:11:30;;;;;;;0.63;0.50;;;6.70;99.90;;;;;;5225335;27;20276;-65
2024/04/16 08:13:55;;;;;;;0.20;0.20;;;6.70;99.90;;;;;;5239680;27;20288;-65
2024/04/16 08:16:21;;;;;;;0.37;0.37;;;6.60;99.90;;;;;;5238828;27;20370;-64
2024/04/16 08:18:47;;;;;;;0.23;0.20;;;6.60;99.90;;;;;;5239580;27;20352;-65
2024/04/16 08:21:13;;;;;;;0.23;0.23;;;6.50;99.90;;;;;;5238929;27;20249;-65
2024/04/16 08:23:38;;;;;;;0.93;0.50;;;6.40;99.90;;;;;;5239433;27;20233;-64
2024/04/16 08:26:07;;;;;;;0.90;0.87;;;6.20;99.90;;;;;;5237732;27;20245;-66
2024/04/16 08:28:33;;;;;;;3.10;0.30;;;6.00;99.90;;;;;;5225364;27;20590;-65
2024/04/16 08:31:00;;;;;;;0.30;0.30;;;6.00;99.90;;;;;;5238970;27;20304;-65
2024/04/16 08:33:25;;;;;;;0.30;0.30;;;5.90;99.90;;;;;;5239838;27;20588;-65
2024/04/16 08:35:52;;;;;;;0.40;0.33;;;5.80;99.90;;;;;;5239487;27;20284;-65
2024/04/16 08:38:18;;;;;;;0.30;0.30;;;5.80;99.90;;;;;;5239332;27;20560;-65
2024/04/16 08:40:47;;;;;;;0.40;0.30;;;5.90;99.90;;;;;;5237521;27;20237;-65
2024/04/16 08:43:13;;;;;;;0.10;0.10;;;5.90;99.90;;;;;;5216073;27;20280;-64
2024/04/16 08:45:42;;;;;;;0.40;0.20;;;5.90;99.90;;;;;;5233391;27;20376;-64
2024/04/16 08:48:09;;;;;;;0.17;0.17;;;5.70;99.90;;;;;;5205898;27;20281;-65
2024/04/16 08:50:35;;;;;;;1.60;0.47;;;5.80;99.90;;;;;;5233682;27;20563;-65
2024/04/16 08:53:03;;;;;;;0.20;0.20;;;5.90;99.90;;;;;;5239431;27;20237;-65
2024/04/16 08:55:30;;;;;;;0.57;0.27;;;5.90;99.90;;;;;;5239206;27;20340;-65
2024/04/16 08:57:56;;;;;;;0.10;0.10;;;5.80;99.90;;;;;;5239332;27;20348;-65
2024/04/16 09:00:22;;;;;;;0.17;0.17;;;5.70;99.90;;;;;;5238546;27;20237;-65
2024/04/16 09:02:50;;;;;;;0.13;0.13;;;5.70;99.90;;;;;;5238778;27;20280;-65
2024/04/16 09:05:16;;;;;;;0.10;0.10;;;5.60;99.90;;;;;;5265205;27;20698;-64
2024/04/16 09:07:42;;;;;;;0.10;0.10;;;5.60;99.90;;;;;;5238907;27;20260;-64
2024/04/16 09:10:11;;;;;;;0.10;0.10;;;5.60;99.90;;;;;;5238211;27;20800;-65
2024/04/16 09:12:40;;;;;;;0.30;0.30;;;5.60;99.90;;;;;;5238194;27;20288;-64
2024/04/16 09:15:05;;;;;;;0.10;0.10;;;5.60;99.90;;;;;;5239021;27;20588;-65
2024/04/16 09:17:31;;;;;;;0.10;0.10;;;5.70;99.90;;;;;;5238313;27;20255;-64
2024/04/16 09:20:03;;;;;;;0.37;0.23;;;5.80;99.90;;;;;;5250764;27;20242;-65
2024/04/16 09:22:30;;;;;;;0.10;0.10;;;5.90;99.90;;;;;;5251344;27;20660;-65
2024/04/16 09:25:07;;;;;;;1.53;0.50;;;6.00;99.90;;;;;;5225307;27;20588;-65
2024/04/16 09:27:32;;;;;;;1.10;0.63;;;6.20;99.90;;;;;;5239215;27;20280;-65
2024/04/16 09:30:24;;;;;;;0.40;0.40;;;6.30;99.90;;;;;;5241246;27;20238;-64
2024/04/16 09:32:57;;;;;;;0.30;0.30;;;6.30;99.90;;;;;;5238888;27;20234;-64
2024/04/16 09:35:29;;;;;;;1.37;0.77;;;6.40;99.90;;;;;;5241754;27;20306;-64
2024/04/16 09:38:06;;;;;;;0.20;0.20;;;6.40;99.90;;;;;;5214483;27;20297;-64
2024/04/16 09:40:32;;;;;;;0.20;0.20;;;6.50;99.90;;;;;;5241092;27;20787;-64
2024/04/16 09:42:58;;;;;;;0.20;0.20;;;6.50;99.90;;;;;;5242002;27;20245;-64
2024/04/16 09:45:24;;;;;;;0.10;0.10;;;6.40;99.90;;;;;;5242043;27;20276;-63
2024/04/16 09:47:51;;;;;;;0.10;0.10;;;6.30;99.90;;;;;;5227707;27;20593;-64
2024/04/16 09:50:20;;;;;;;0.13;0.13;;;6.30;99.90;;;;;;5241105;27;20237;-64
2024/04/16 09:52:54;;;;;;;0.20;0.20;;;6.30;99.90;;;;;;5238114;27;20237;-64
2024/04/16 09:55:22;;;;;;;0.47;0.23;;;6.40;99.90;;;;;;5233437;27;20351;-64
2024/04/16 09:57:48;;;;;;;0.20;0.20;;;6.50;99.90;;;;;;5241403;27;20305;-64
2024/04/16 10:00:15;;;;;;;0.20;0.20;;;6.60;99.90;;;;;;5241375;27;20288;-64
2024/04/16 10:02:42;;;;;;;0.20;0.20;;;6.80;99.90;;;;;;5241324;27;20353;-64
2024/04/16 10:05:12;;;;;;;0.17;0.17;;;6.90;99.90;;;;;;5241834;27;20241;-64
2024/04/16 10:07:39;;;;;;;0.27;0.27;;;6.70;99.90;;;;;;5227475;27;20436;-64
2024/04/16 10:10:07;;;;;;;0.10;0.10;;;6.60;99.90;;;;;;5240986;27;20701;-64
2024/04/16 10:12:33;;;;;;;0.20;0.20;;;6.50;99.90;;;;;;5227686;27;20691;-64
2024/04/16 10:15:01;;;;;;;0.10;0.10;;;6.40;99.90;;;;;;5241387;27;20238;-64
2024/04/16 10:17:27;;;;;;;0.10;0.10;;;6.40;99.90;;;;;;5227571;27;20253;-63
2024/04/16 10:19:53;;;;;;;0.20;0.20;;;6.30;99.90;;;;;;5266869;27;20765;-64
2024/04/16 10:22:18;;;;;;;0.73;0.37;;;6.30;99.90;;;;;;5241738;27;20233;-64
2024/04/16 10:24:54;;;;;;;0.73;0.47;;;6.40;99.90;;;;;;5239528;27;20352;-64
2024/04/16 10:27:24;;;;;;;1.80;0.73;;;6.40;99.90;;;;;;5241336;27;20312;-63
2024/04/16 10:30:07;;;;;;;0.67;0.67;;;6.40;99.90;;;;;;5239049;27;20819;-64
2024/04/16 10:32:33;;;;;;;0.30;0.30;;;6.40;99.90;;;;;;5241139;27;20242;-64
2024/04/16 10:35:07;;;;;;;0.30;0.30;;;6.40;99.90;;;;;;5240845;27;20233;-65
2024/04/16 10:37:35;;;;;;;0.30;0.30;;;6.40;99.90;;;;;;5240417;27;20272;-63
2024/04/16 10:40:01;;;;;;;0.40;0.40;;;6.40;99.90;;;;;;5239343;27;20238;-63
2024/04/16 10:42:30;;;;;;;0.20;0.20;;;6.50;99.90;;;;;;5240501;27;20245;-63
2024/04/16 10:44:56;;;;;;;0.10;0.10;;;6.50;99.90;;;;;;5241064;27;20586;-63
2024/04/16 10:47:25;;;;;;;0.20;0.20;;;6.50;99.90;;;;;;5267091;27;20636;-63
2024/04/16 10:49:52;;;;;;;0.40;0.30;;;6.60;99.90;;;;;;5239707;27;20250;-64
2024/04/16 10:52:19;;;;;;;0.50;0.33;;;6.60;99.90;;;;;;5240877;27;20821;-63
2024/04/16 10:54:50;;;;;;;1.13;0.47;;;6.70;99.90;;;;;;5240078;27;20361;-63
2024/04/16 10:57:17;;;;;;;0.33;0.33;;;6.80;99.90;;;;;;5240617;27;20761;-63
2024/04/16 10:59:44;;;;;;;0.77;0.40;;;6.90;99.90;;;;;;5225939;27;20234;-63
2024/04/16 11:02:10;;;;;;;0.63;0.30;;;6.90;99.90;;;;;;5240566;27;20629;-63
2024/04/16 11:04:38;;;;;;;0.53;0.30;;;7.00;99.90;;;;;;5240307;27;20732;-63
2024/04/16 11:07:04;;;;;;;0.47;0.40;;;7.00;99.90;;;;;;5240639;27;20245;-63
2024/04/16 11:09:30;;;;;;;1.37;0.67;;;7.20;99.90;;;;;;5240037;27;20238;-63
2024/04/16 11:11:56;;;;;;;0.40;0.40;;;7.30;99.90;;;;;;5240297;27;20534;-63
2024/04/16 11:14:23;;;;;;;0.57;0.43;;;7.40;99.90;;;;;;5240450;27;20858;-63
2024/04/16 11:16:49;;;;;;;0.90;0.50;;;7.40;99.90;;;;;;5240167;27;20245;-64
2024/04/16 11:19:16;;;;;;;0.30;0.30;;;7.40;99.90;;;;;;5240319;27;20249;-64
2024/04/16 11:21:43;;;;;;;0.30;0.30;;;7.40;99.90;;;;;;5239392;27;20577;-63
2024/04/16 11:24:09;;;;;;;0.60;0.60;;;7.60;99.90;;;;;;5238484;27;20253;-63
2024/04/16 11:26:37;;;;;;;0.40;0.40;;;7.70;99.90;;;;;;5239950;27;20242;-63
2024/04/16 11:29:02;;;;;;;3.03;1.07;;;7.80;99.90;;;;;;5239829;27;20314;-63
2024/04/16 11:31:29;;;;;;;1.20;0.80;;;7.90;99.90;;;;;;5210195;27;20699;-63
2024/04/16 11:33:55;;;;;;;2.07;1.10;;;7.80;99.90;;;;;;5239331;27;20347;-63
2024/04/16 11:36:21;;;;;;;0.63;0.50;;;7.80;99.90;;;;;;5239802;27;20226;-62
2024/04/16 11:38:47;;;;;;;0.83;0.40;;;7.70;99.90;;;;;;5239543;27;20291;-62
2024/04/16 11:41:15;;;;;;;4.47;0.90;;;7.70;99.90;;;;;;5239228;27;20624;-61
2024/04/16 11:43:41;;;;;;;0.30;0.20;;;7.60;99.90;;;;;;5239499;27;20234;-62
2024/04/16 11:46:10;;;;;;;0.40;0.40;;;7.50;99.90;;;;;;5239774;27;20269;-63
2024/04/16 11:48:35;;;;;;;0.47;0.30;;;7.50;99.90;;;;;;5239454;27;20250;-62
2024/04/16 11:51:01;;;;;;;0.67;0.40;;;7.40;99.90;;;;;;5237769;27;20257;-62
2024/04/16 11:53:27;;;;;;;0.30;0.30;;;7.30;99.90;;;;;;5238265;27;20242;-62
2024/04/16 11:55:52;;;;;;;0.30;0.30;;;7.30;99.90;;;;;;5239326;27;20366;-62
2024/04/16 11:58:18;;;;;;;3.27;0.50;;;7.10;99.90;;;;;;5239264;27;20237;-63
2024/04/16 12:00:43;;;;;;;0.30;0.30;;;7.10;99.90;;;;;;5239022;27;20234;-63
2024/04/16 12:03:09;;;;;;;0.30;0.20;;;7.30;99.90;;;;;;5239824;27;20234;-63
2024/04/16 12:05:35;;;;;;;0.40;0.40;;;7.40;99.90;;;;;;5239411;27;20287;-62
2024/04/16 12:08:01;;;;;;;0.20;0.20;;;7.70;99.90;;;;;;5239467;27;20316;-63
2024/04/16 12:10:30;;;;;;;0.20;0.20;;;7.90;99.90;;;;;;5238837;27;20230;-63
2024/04/16 12:12:56;;;;;;;0.50;0.40;;;8.20;99.90;;;;;;5239267;27;20379;-64
2024/04/16 12:15:22;;;;;;;0.30;0.30;;;8.40;99.90;;;;;;5239525;27;20237;-63
2024/04/16 12:17:47;;;;;;;0.40;0.40;;;8.80;99.90;;;;;;5239040;27;20272;-64
2024/04/16 12:20:13;;;;;;;0.40;0.40;;;8.90;99.90;;;;;;5238797;27;20710;-63
2024/04/16 12:22:39;;;;;;;0.20;0.20;;;8.80;99.90;;;;;;5225505;27;20238;-63
2024/04/16 12:25:05;;;;;;;0.30;0.30;;;8.80;99.90;;;;;;5239526;27;20309;-63
2024/04/16 12:27:30;;;;;;;0.20;0.20;;;8.60;99.90;;;;;;5239126;27;20285;-63
2024/04/16 12:29:56;;;;;;;0.20;0.20;;;8.50;99.90;;;;;;5263599;27;20613;-64
2024/04/16 12:32:22;;;;;;;0.10;0.10;;;8.40;99.90;;;;;;5227976;27;20246;-64
2024/04/16 12:34:48;;;;;;;1.33;0.80;;;8.50;99.90;;;;;;5223041;27;20689;-63
2024/04/16 12:37:13;;;;;;;0.50;0.40;;;8.80;99.90;;;;;;5238951;27;20757;-65
2024/04/16 12:39:39;;;;;;;0.20;0.20;;;9.20;99.90;;;;;;5224263;27;20510;-65
2024/04/16 12:42:04;;;;;;;1.53;0.57;;;9.50;99.90;;;;;;5239079;27;20298;-65
2024/04/16 12:44:30;;;;;;;0.30;0.20;;;9.80;99.90;;;;;;5225455;27;20344;-65
2024/04/16 12:46:55;;;;;;;0.40;0.40;;;9.80;99.90;;;;;;5239028;27;20343;-65
2024/04/16 12:49:25;;;;;;;0.20;0.20;;;9.90;99.90;;;;;;5238834;27;20237;-65
2024/04/16 12:51:51;;;;;;;0.63;0.50;;;10.00;99.90;;;;;;5224590;27;20280;-65
2024/04/16 12:54:20;;;;;;;0.37;0.30;;;10.00;99.90;;;;;;5238873;27;20237;-65
2024/04/16 12:56:46;;;;;;;0.77;0.20;;;9.80;99.90;;;;;;5224764;27;20245;-65